Time;durP1;ratioP1;P1;durP2;ratioP2;P2;SDS_P1;SDS_P2;PMS_P1;PMS_P2;Temp;Humidity;BMP_temperature;BMP_pressure;BME280_temperature;BME280_humidity;BME280_pressure;Samples;Min_cycle;Max_cycle;Signal;HPM_P1;HPM_P2
2023/06/12 00:00:51;;;;;;;21.80;16.08;;;;;;;;;;5016772;28;20055;-59
2023/06/12 00:03:17;;;;;;;20.30;14.90;;;;;;;;;;5034678;28;20033;-61
2023/06/12 00:05:44;;;;;;;34.70;27.58;;;;;;;;;;5033700;28;20026;-61
2023/06/12 00:08:11;;;;;;;37.10;31.55;;;;;;;;;;5034538;28;20025;-57
2023/06/12 00:10:38;;;;;;;20.10;16.98;;;;;;;;;;5016636;28;20036;-59
2023/06/12 00:13:05;;;;;;;21.50;15.63;;;;;;;;;;5034343;28;20025;-56
2023/06/12 00:15:31;;;;;;;21.15;14.32;;;;;;;;;;5033472;28;20076;-59
2023/06/12 00:17:57;;;;;;;20.33;14.07;;;;;;;;;;5034394;28;20021;-59
2023/06/12 00:20:23;;;;;;;19.98;14.23;;;;;;;;;;5034225;28;20496;-60
2023/06/12 00:22:50;;;;;;;19.75;14.18;;;;;;;;;;5034205;28;20033;-61
2023/06/12 00:25:16;;;;;;;20.48;15.02;;;;;;;;;;5033464;28;20051;-60
2023/06/12 00:27:42;;;;;;;18.88;14.30;;;;;;;;;;5034167;28;20030;-60
2023/06/12 00:30:08;;;;;;;19.15;14.15;;;;;;;;;;5033968;28;20029;-58
2023/06/12 00:32:35;;;;;;;17.95;13.93;;;;;;;;;;5033970;28;20045;-59
2023/06/12 00:35:01;;;;;;;19.40;14.77;;;;;;;;;;5015336;28;20021;-60
2023/06/12 00:37:27;;;;;;;18.35;14.35;;;;;;;;;;5033904;28;20386;-58
2023/06/12 00:39:54;;;;;;;20.05;14.70;;;;;;;;;;5033832;28;20102;-59
2023/06/12 00:42:20;;;;;;;19.90;14.57;;;;;;;;;;5033814;28;20037;-59
2023/06/12 00:44:46;;;;;;;18.92;14.40;;;;;;;;;;5015277;28;20040;-60
2023/06/12 00:47:14;;;;;;;18.65;14.55;;;;;;;;;;5033683;28;20079;-59
2023/06/12 00:49:40;;;;;;;18.27;13.80;;;;;;;;;;5033541;28;20026;-57
2023/06/12 00:52:11;;;;;;;18.27;14.10;;;;;;;;;;5033624;28;20398;-56
2023/06/12 00:54:37;;;;;;;19.60;14.57;;;;;;;;;;5015055;28;20025;-58
2023/06/12 00:57:04;;;;;;;18.85;14.20;;;;;;;;;;5033490;28;20428;-58
2023/06/12 00:59:31;;;;;;;19.48;14.65;;;;;;;;;;5033601;28;20049;-59
2023/06/12 01:01:57;;;;;;;18.92;14.20;;;;;;;;;;5061443;22;20041;-61
2023/06/12 01:04:23;;;;;;;28.52;16.48;;;;;;;;;;5037244;28;20082;-63
2023/06/12 01:06:56;;;;;;;20.25;15.20;;;;;;;;;;5057101;28;20076;-62
2023/06/12 01:09:21;;;;;;;19.38;13.95;;;;;;;;;;5057817;28;20401;-62
2023/06/12 01:11:49;;;;;;;19.00;14.73;;;;;;;;;;5057717;28;20029;-64
2023/06/12 01:14:16;;;;;;;18.70;13.80;;;;;;;;;;5056712;28;20021;-60
2023/06/12 01:16:42;;;;;;;24.40;14.77;;;;;;;;;;5038835;28;20472;-62
2023/06/12 01:19:08;;;;;;;20.45;15.00;;;;;;;;;;5057069;28;20025;-62
2023/06/12 01:21:36;;;;;;;18.92;13.93;;;;;;;;;;5056558;28;20525;-63
2023/06/12 01:24:11;;;;;;;19.50;14.65;;;;;;;;;;5056497;28;20021;-62
2023/06/12 01:26:53;;;;;;;18.10;13.52;;;;;;;;;;5038605;28;20111;-61
2023/06/12 01:29:37;;;;;;;18.73;14.20;;;;;;;;;;5055421;28;20436;-57
2023/06/12 01:32:05;;;;;;;19.40;16.08;;;;;;;;;;5055034;28;20039;-61
2023/06/12 01:34:53;;;;;;;21.77;14.35;;;;;;;;;;5036294;28;20400;-62
2023/06/12 01:37:33;;;;;;;18.90;14.32;;;;;;;;;;5042000;28;20035;-62
2023/06/12 01:40:00;;;;;;;20.45;15.07;;;;;;;;;;5054440;28;20087;-60
2023/06/12 01:42:27;;;;;;;18.55;13.63;;;;;;;;;;5055288;28;20473;-61
2023/06/12 01:44:54;;;;;;;18.90;13.57;;;;;;;;;;5038330;28;20036;-63
2023/06/12 01:47:20;;;;;;;18.23;13.98;;;;;;;;;;5057221;28;20029;-63
2023/06/12 01:49:46;;;;;;;18.38;14.02;;;;;;;;;;5056406;28;20040;-62
2023/06/12 01:52:12;;;;;;;18.15;13.52;;;;;;;;;;5055580;28;20086;-61
2023/06/12 01:54:40;;;;;;;19.35;13.57;;;;;;;;;;5053357;28;20489;-59
2023/06/12 01:57:06;;;;;;;19.15;13.75;;;;;;;;;;5036914;28;20374;-59
2023/06/12 01:59:35;;;;;;;17.80;13.45;;;;;;;;;;5036529;28;20096;-62
2023/06/12 02:02:01;;;;;;;19.25;13.50;;;;;;;;;;5055073;28;20035;-62
2023/06/12 02:04:29;;;;;;;18.20;13.52;;;;;;;;;;5038009;28;20145;-62
2023/06/12 02:06:55;;;;;;;17.73;13.65;;;;;;;;;;5038349;28;20021;-62
2023/06/12 02:09:21;;;;;;;19.33;14.00;;;;;;;;;;5057127;28;20416;-62
2023/06/12 02:11:46;;;;;;;19.10;13.73;;;;;;;;;;5056522;28;20098;-62
2023/06/12 02:14:12;;;;;;;19.95;13.68;;;;;;;;;;5037598;28;20040;-62
2023/06/12 02:16:38;;;;;;;17.58;13.50;;;;;;;;;;5038176;28;20017;-62
2023/06/12 02:19:04;;;;;;;18.13;14.27;;;;;;;;;;5052995;28;20029;-62
2023/06/12 02:21:30;;;;;;;17.92;13.25;;;;;;;;;;5053146;28;20108;-62
2023/06/12 02:23:56;;;;;;;18.65;13.38;;;;;;;;;;5037436;28;20049;-62
2023/06/12 02:26:22;;;;;;;19.42;13.50;;;;;;;;;;5054642;28;20032;-65
2023/06/12 02:29:06;;;;;;;19.33;13.82;;;;;;;;;;5055130;28;20064;-60
2023/06/12 02:31:31;;;;;;;21.10;13.82;;;;;;;;;;5055177;28;20029;-60
2023/06/12 02:33:57;;;;;;;19.63;13.75;;;;;;;;;;5036243;28;20103;-60
2023/06/12 02:36:23;;;;;;;17.80;12.98;;;;;;;;;;5054698;28;20017;-63
2023/06/12 02:38:50;;;;;;;19.73;13.95;;;;;;;;;;5055672;28;20458;-63
2023/06/12 02:41:16;;;;;;;19.15;13.70;;;;;;;;;;5055484;28;20021;-62
2023/06/12 02:43:42;;;;;;;18.60;13.50;;;;;;;;;;5054525;28;20370;-63
2023/06/12 02:46:08;;;;;;;17.98;13.20;;;;;;;;;;5053376;28;20070;-59
2023/06/12 02:48:34;;;;;;;18.15;13.77;;;;;;;;;;5037029;28;20021;-60
2023/06/12 02:51:00;;;;;;;19.05;14.63;;;;;;;;;;5055067;28;20024;-62
2023/06/12 02:53:26;;;;;;;17.92;13.38;;;;;;;;;;5054953;28;20021;-62
2023/06/12 02:55:52;;;;;;;20.88;14.32;;;;;;;;;;5054528;28;20116;-63
2023/06/12 02:58:19;;;;;;;18.13;13.88;;;;;;;;;;5054088;28;20435;-63
2023/06/12 03:00:46;;;;;;;18.92;13.63;;;;;;;;;;5055245;28;20029;-61
2023/06/12 03:03:12;;;;;;;19.05;13.55;;;;;;;;;;5054848;28;20039;-60
2023/06/12 03:05:39;;;;;;;18.77;13.90;;;;;;;;;;5053980;28;20477;-60
2023/06/12 03:08:05;;;;;;;19.17;14.20;;;;;;;;;;5054642;28;20025;-61
2023/06/12 03:10:31;;;;;;;18.77;14.02;;;;;;;;;;5036172;28;20036;-63
2023/06/12 03:12:57;;;;;;;21.50;13.23;;;;;;;;;;5054699;28;20044;-62
2023/06/12 03:15:24;;;;;;;18.67;13.55;;;;;;;;;;5035987;28;20357;-63
2023/06/12 03:17:50;;;;;;;20.63;13.70;;;;;;;;;;5055206;28;20033;-63
2023/06/12 03:20:16;;;;;;;18.38;13.88;;;;;;;;;;5036701;28;20029;-62
2023/06/12 03:22:42;;;;;;;19.70;13.45;;;;;;;;;;5036592;28;20442;-63
2023/06/12 03:25:10;;;;;;;19.98;13.68;;;;;;;;;;5053366;28;20112;-63
2023/06/12 03:27:36;;;;;;;19.23;13.40;;;;;;;;;;5055398;28;20442;-62
2023/06/12 03:30:02;;;;;;;18.02;13.55;;;;;;;;;;5058597;28;20036;-62
2023/06/12 03:32:28;;;;;;;19.42;13.98;;;;;;;;;;5058544;28;20171;-63
2023/06/12 03:34:54;;;;;;;21.58;13.93;;;;;;;;;;5056327;28;20033;-61
2023/06/12 03:37:21;;;;;;;19.08;13.68;;;;;;;;;;5056611;28;20109;-62
2023/06/12 03:39:47;;;;;;;20.75;13.88;;;;;;;;;;5058090;28;20086;-62
2023/06/12 03:42:15;;;;;;;21.15;13.52;;;;;;;;;;5057925;28;20028;-59
2023/06/12 03:44:41;;;;;;;18.23;13.85;;;;;;;;;;5055378;28;20047;-60
2023/06/12 03:47:07;;;;;;;19.27;14.35;;;;;;;;;;5057658;28;20459;-61
2023/06/12 03:49:33;;;;;;;19.27;13.88;;;;;;;;;;5058113;28;20090;-63
2023/06/12 03:51:59;;;;;;;20.88;14.75;;;;;;;;;;5057669;28;20013;-62
2023/06/12 03:54:25;;;;;;;21.20;14.13;;;;;;;;;;5057400;28;20154;-62
2023/06/12 03:56:51;;;;;;;20.27;14.00;;;;;;;;;;5057285;28;20511;-63
2023/06/12 03:59:18;;;;;;;19.38;13.40;;;;;;;;;;5056104;28;20032;-63
2023/06/12 04:01:44;;;;;;;19.25;14.10;;;;;;;;;;5056588;28;20036;-62
2023/06/12 04:04:11;;;;;;;20.23;13.93;;;;;;;;;;5057352;28;20449;-60
2023/06/12 04:06:40;;;;;;;19.80;13.63;;;;;;;;;;5058305;28;20437;-61
2023/06/12 04:09:09;;;;;;;21.75;14.60;;;;;;;;;;5057257;28;20083;-62
2023/06/12 04:11:38;;;;;;;20.45;13.98;;;;;;;;;;5057121;28;20021;-64
2023/06/12 04:14:04;;;;;;;21.25;14.55;;;;;;;;;;5054899;28;20009;-63
2023/06/12 04:16:30;;;;;;;19.38;14.23;;;;;;;;;;5055602;28;20105;-60
2023/06/12 04:18:57;;;;;;;19.20;13.75;;;;;;;;;;5056445;28;20060;-62
2023/06/12 04:21:23;;;;;;;20.60;14.30;;;;;;;;;;5053006;28;20048;-61
2023/06/12 04:23:51;;;;;;;18.83;14.20;;;;;;;;;;5037938;28;20032;-64
2023/06/12 04:26:17;;;;;;;18.65;13.93;;;;;;;;;;5050166;28;20366;-61
2023/06/12 04:28:46;;;;;;;18.95;14.15;;;;;;;;;;5055801;28;20021;-62
2023/06/12 04:31:15;;;;;;;19.98;15.25;;;;;;;;;;5039830;28;20021;-61
2023/06/12 04:33:41;;;;;;;19.45;14.52;;;;;;;;;;5038526;28;20025;-61
2023/06/12 04:36:13;;;;;;;18.10;14.13;;;;;;;;;;5055988;28;20535;-61
2023/06/12 04:38:39;;;;;;;19.92;14.75;;;;;;;;;;5054606;28;20029;-61
2023/06/12 04:41:05;;;;;;;21.63;14.80;;;;;;;;;;5055583;28;20060;-62
2023/06/12 04:43:32;;;;;;;21.63;15.23;;;;;;;;;;5050752;28;20032;-61
2023/06/12 04:45:58;;;;;;;20.10;14.93;;;;;;;;;;5056675;28;20024;-63
2023/06/12 04:48:24;;;;;;;22.15;15.13;;;;;;;;;;5057505;28;20106;-62
2023/06/12 04:50:53;;;;;;;23.58;16.30;;;;;;;;;;5056458;28;20710;-63
2023/06/12 04:53:19;;;;;;;;;;;;;;;;;;5056827;28;20025;-62
2023/06/12 04:55:50;;;;;;;19.98;15.23;;;;;;;;;;5038034;28;19911;-61
2023/06/12 04:58:17;;;;;;;20.48;14.93;;;;;;;;;;5055931;28;20021;-63
2023/06/12 05:00:47;;;;;;;19.15;14.40;;;;;;;;;;5038598;28;20074;-63
2023/06/12 05:03:14;;;;;;;19.30;15.25;;;;;;;;;;5038171;28;20063;-59
2023/06/12 05:05:40;;;;;;;19.35;14.70;;;;;;;;;;5038072;28;20499;-60
2023/06/12 05:08:06;;;;;;;21.80;16.45;;;;;;;;;;5056964;28;20028;-60
2023/06/12 05:10:32;;;;;;;19.23;14.80;;;;;;;;;;5056509;28;20432;-63
2023/06/12 05:12:58;;;;;;;21.20;15.48;;;;;;;;;;5055887;28;20112;-60
2023/06/12 05:15:24;;;;;;;19.02;14.85;;;;;;;;;;5056394;28;20110;-64
2023/06/12 05:17:50;;;;;;;20.33;15.82;;;;;;;;;;5056482;28;20484;-61
2023/06/12 05:20:17;;;;;;;19.75;15.77;;;;;;;;;;5037841;28;20052;-59
2023/06/12 05:22:43;;;;;;;19.52;15.23;;;;;;;;;;5055860;28;20025;-63
2023/06/12 05:25:09;;;;;;;23.15;15.75;;;;;;;;;;5055597;28;20025;-60
2023/06/12 05:27:35;;;;;;;23.70;16.48;;;;;;;;;;5056519;28;20024;-60
2023/06/12 05:30:02;;;;;;;22.55;15.95;;;;;;;;;;5055220;28;20527;-61
2023/06/12 05:32:28;;;;;;;20.40;15.43;;;;;;;;;;5037578;28;20017;-63
2023/06/12 05:34:54;;;;;;;20.75;15.55;;;;;;;;;;5055203;28;20052;-58
2023/06/12 05:37:20;;;;;;;20.77;15.60;;;;;;;;;;5055791;28;20017;-65
2023/06/12 05:39:46;;;;;;;21.73;16.42;;;;;;;;;;5037463;28;20499;-65
2023/06/12 05:42:12;;;;;;;19.88;15.85;;;;;;;;;;5054898;28;20057;-61
2023/06/12 05:44:38;;;;;;;19.17;15.27;;;;;;;;;;5054256;28;20056;-61
2023/06/12 05:47:04;;;;;;;26.73;21.90;;;;;;;;;;5054731;28;20102;-61
2023/06/12 05:49:31;;;;;;;21.77;16.83;;;;;;;;;;5055156;28;20471;-63
2023/06/12 05:51:57;;;;;;;20.45;16.13;;;;;;;;;;5053989;28;20055;-65
2023/06/12 05:54:23;;;;;;;21.40;15.73;;;;;;;;;;5034730;28;20028;-60
2023/06/12 05:56:49;;;;;;;22.30;15.63;;;;;;;;;;5052917;28;20096;-63
2023/06/12 05:59:15;;;;;;;18.92;15.95;;;;;;;;;;5053107;28;20040;-61
2023/06/12 06:01:41;;;;;;;19.05;15.00;;;;;;;;;;5052549;28;20068;-60
2023/06/12 06:04:11;;;;;;;20.13;15.77;;;;;;;;;;5051852;28;20033;-67
2023/06/12 06:06:38;;;;;;;23.02;15.88;;;;;;;;;;5034597;28;20025;-60
2023/06/12 06:09:04;;;;;;;21.58;16.73;;;;;;;;;;5034552;28;20397;-66
2023/06/12 06:11:31;;;;;;;22.42;17.00;;;;;;;;;;5051916;28;20102;-61
2023/06/12 06:13:58;;;;;;;23.60;16.58;;;;;;;;;;5036050;28;20028;-60
2023/06/12 06:16:24;;;;;;;20.63;16.38;;;;;;;;;;5051499;28;20024;-62
2023/06/12 06:18:50;;;;;;;21.17;16.70;;;;;;;;;;5053186;28;20032;-64
2023/06/12 06:21:16;;;;;;;20.58;16.50;;;;;;;;;;5035752;28;20064;-63
2023/06/12 06:23:42;;;;;;;21.48;16.65;;;;;;;;;;5053412;28;20021;-59
2023/06/12 06:26:09;;;;;;;20.63;16.52;;;;;;;;;;5052884;28;20108;-63
2023/06/12 06:28:36;;;;;;;23.15;16.25;;;;;;;;;;5053854;28;20021;-63
2023/06/12 06:31:03;;;;;;;20.27;16.42;;;;;;;;;;5065817;28;20066;-59
2023/06/12 06:33:29;;;;;;;20.65;16.33;;;;;;;;;;5073582;28;20043;-63
2023/06/12 06:35:55;;;;;;;21.10;17.10;;;;;;;;;;5073576;28;20020;-62
2023/06/12 06:38:24;;;;;;;27.20;16.48;;;;;;;;;;5046846;28;20108;-65
2023/06/12 06:40:50;;;;;;;21.52;16.73;;;;;;;;;;5054922;28;20021;-62
2023/06/12 06:43:16;;;;;;;22.85;16.75;;;;;;;;;;5053919;28;20436;-58
2023/06/12 06:45:42;;;;;;;19.90;16.17;;;;;;;;;;5052967;28;20033;-61
2023/06/12 06:48:08;;;;;;;20.92;16.60;;;;;;;;;;5053782;28;20025;-58
2023/06/12 06:50:34;;;;;;;20.55;16.33;;;;;;;;;;5072844;28;20032;-57
2023/06/12 06:53:02;;;;;;;20.52;16.40;;;;;;;;;;5072850;28;20020;-62
2023/06/12 06:55:28;;;;;;;20.77;15.93;;;;;;;;;;5071809;28;20031;-63
2023/06/12 06:57:54;;;;;;;19.60;15.60;;;;;;;;;;5073179;28;20045;-63
2023/06/12 07:00:21;;;;;;;18.90;16.60;;;;;;;;;;5073245;28;20035;-62
2023/06/12 07:02:48;;;;;;;19.63;15.63;;;;;;;;;;5074872;23;20521;-56
2023/06/12 07:05:14;;;;;;;20.85;16.20;;;;;;;;;;5054667;28;20129;-56
2023/06/12 07:07:41;;;;;;;19.33;15.70;;;;;;;;;;5055434;28;20143;-58
2023/06/12 07:10:07;;;;;;;19.92;16.38;;;;;;;;;;5055461;28;20025;-54
2023/06/12 07:12:34;;;;;;;21.92;16.73;;;;;;;;;;5060770;28;20024;-55
2023/06/12 07:15:00;;;;;;;21.95;16.40;;;;;;;;;;5056494;28;20025;-57
2023/06/12 07:17:26;;;;;;;20.75;15.77;;;;;;;;;;5075462;28;20491;-58
2023/06/12 07:19:52;;;;;;;19.85;16.20;;;;;;;;;;5076996;28;20031;-59
2023/06/12 07:22:18;;;;;;;22.10;16.70;;;;;;;;;;5075278;28;20074;-56
2023/06/12 07:24:44;;;;;;;24.08;17.42;;;;;;;;;;5074320;28;20024;-55
2023/06/12 07:27:10;;;;;;;20.63;16.60;;;;;;;;;;5074312;28;20035;-56
2023/06/12 07:29:36;;;;;;;20.80;15.80;;;;;;;;;;5052650;28;20029;-68
2023/06/12 07:32:02;;;;;;;19.77;16.23;;;;;;;;;;5054715;28;20025;-69
2023/06/12 07:34:28;;;;;;;20.40;16.98;;;;;;;;;;5054148;28;20025;-69
2023/06/12 07:36:54;;;;;;;20.42;16.80;;;;;;;;;;5054887;28;20090;-68
2023/06/12 07:39:20;;;;;;;18.50;16.40;;;;;;;;;;5037348;28;20449;-69
2023/06/12 07:41:46;;;;;;;19.80;16.60;;;;;;;;;;5036966;28;20064;-68
2023/06/12 07:44:12;;;;;;;19.60;16.95;;;;;;;;;;5054086;28;20579;-70
2023/06/12 07:46:39;;;;;;;20.70;16.65;;;;;;;;;;5038417;28;20400;-69
2023/06/12 07:49:05;;;;;;;21.25;16.88;;;;;;;;;;5039082;28;20040;-68
2023/06/12 07:51:31;;;;;;;21.42;16.98;;;;;;;;;;5037229;28;20021;-68
2023/06/12 07:53:57;;;;;;;20.77;17.08;;;;;;;;;;5036386;28;20060;-67
2023/06/12 07:56:24;;;;;;;22.98;18.17;;;;;;;;;;5036089;28;20031;-68
2023/06/12 07:58:51;;;;;;;20.67;17.10;;;;;;;;;;5054700;28;20308;-70
2023/06/12 08:01:17;;;;;;;20.83;17.00;;;;;;;;;;5054862;28;20021;-67
2023/06/12 08:03:43;;;;;;;20.67;17.17;;;;;;;;;;5058200;28;20067;-69
2023/06/12 08:06:11;;;;;;;19.85;16.73;;;;;;;;;;5073260;28;20047;-68
2023/06/12 08:08:43;;;;;;;22.40;16.63;;;;;;;;;;5074466;28;20472;-69
2023/06/12 08:11:10;;;;;;;20.52;17.30;;;;;;;;;;5079972;28;20286;-70
2023/06/12 08:13:36;;;;;;;20.25;16.27;;;;;;;;;;5058291;28;20033;-69
2023/06/12 08:16:02;;;;;;;21.27;16.20;;;;;;;;;;5073122;28;20396;-68
2023/06/12 08:18:28;;;;;;;19.35;16.92;;;;;;;;;;5073940;28;20438;-68
2023/06/12 08:20:54;;;;;;;20.55;17.02;;;;;;;;;;5075309;28;20032;-67
2023/06/12 08:23:20;;;;;;;19.73;16.65;;;;;;;;;;5082254;28;20028;-66
2023/06/12 08:25:47;;;;;;;19.38;17.25;;;;;;;;;;5068313;28;20024;-61
2023/06/12 08:28:13;;;;;;;20.42;17.50;;;;;;;;;;5073938;28;20035;-64
2023/06/12 08:30:39;;;;;;;19.10;16.80;;;;;;;;;;5053638;28;20021;-54
2023/06/12 08:33:05;;;;;;;20.45;16.50;;;;;;;;;;5072952;28;20028;-64
2023/06/12 08:35:31;;;;;;;19.05;16.63;;;;;;;;;;5072636;28;20334;-64
2023/06/12 08:37:57;;;;;;;18.70;16.40;;;;;;;;;;5071877;28;20029;-65
2023/06/12 08:40:23;;;;;;;18.73;16.33;;;;;;;;;;5072920;28;20036;-65
2023/06/12 08:42:52;;;;;;;19.83;17.05;;;;;;;;;;5073352;28;20032;-63
2023/06/12 08:45:23;;;;;;;19.17;16.08;;;;;;;;;;5054929;28;20020;-64
2023/06/12 08:47:49;;;;;;;20.73;17.08;;;;;;;;;;5073322;28;20028;-64
2023/06/12 08:50:19;;;;;;;20.27;17.23;;;;;;;;;;5054951;28;20028;-63
2023/06/12 08:52:47;;;;;;;20.13;17.38;;;;;;;;;;5054948;28;20021;-54
2023/06/12 08:55:16;;;;;;;20.23;16.77;;;;;;;;;;5069468;28;20445;-53
2023/06/12 08:57:43;;;;;;;20.00;17.27;;;;;;;;;;5074145;28;20028;-49
2023/06/12 09:00:13;;;;;;;20.30;17.02;;;;;;;;;;5055446;28;20029;-54
2023/06/12 09:02:51;;;;;;;19.10;16.75;;;;;;;;;;5073875;28;20036;-52
2023/06/12 09:05:18;;;;;;;20.17;17.38;;;;;;;;;;5054291;28;20028;-56
2023/06/12 09:07:46;;;;;;;20.27;16.80;;;;;;;;;;5073335;28;20044;-65
2023/06/12 09:10:12;;;;;;;19.85;16.55;;;;;;;;;;5073144;28;20063;-65
2023/06/12 09:12:43;;;;;;;20.25;17.02;;;;;;;;;;5054538;28;20048;-65
2023/06/12 09:15:09;;;;;;;18.88;16.63;;;;;;;;;;5072396;28;20538;-65
2023/06/12 09:17:37;;;;;;;20.42;17.40;;;;;;;;;;5054291;28;20059;-65
2023/06/12 09:20:06;;;;;;;19.52;17.10;;;;;;;;;;5070412;28;20035;-65
2023/06/12 09:22:33;;;;;;;20.80;17.35;;;;;;;;;;5048326;28;20029;-65
2023/06/12 09:25:02;;;;;;;21.60;16.88;;;;;;;;;;5075573;28;20053;-66
2023/06/12 09:27:28;;;;;;;20.60;16.50;;;;;;;;;;5071383;28;20535;-66
2023/06/12 09:29:59;;;;;;;20.08;16.95;;;;;;;;;;5072253;28;20108;-64
2023/06/12 09:32:28;;;;;;;21.23;17.00;;;;;;;;;;5050620;28;20024;-65
2023/06/12 09:34:55;;;;;;;20.33;16.52;;;;;;;;;;5050181;28;20033;-64
2023/06/12 09:37:22;;;;;;;20.50;16.88;;;;;;;;;;5050675;28;20020;-65
2023/06/12 09:39:48;;;;;;;20.10;18.00;;;;;;;;;;5052287;28;20087;-64
2023/06/12 09:42:16;;;;;;;22.90;17.60;;;;;;;;;;5050578;28;20025;-64
2023/06/12 09:44:43;;;;;;;20.27;16.58;;;;;;;;;;5051283;28;20028;-63
2023/06/12 09:47:09;;;;;;;21.00;17.67;;;;;;;;;;5052041;28;20051;-63
2023/06/12 09:49:36;;;;;;;20.02;17.77;;;;;;;;;;5052111;28;20106;-66
2023/06/12 09:52:03;;;;;;;23.00;18.02;;;;;;;;;;5052292;28;20029;-63
2023/06/12 09:54:31;;;;;;;21.83;17.33;;;;;;;;;;5051512;28;20049;-63
2023/06/12 09:56:58;;;;;;;21.10;17.67;;;;;;;;;;5052242;28;20025;-64
2023/06/12 09:59:27;;;;;;;20.77;17.52;;;;;;;;;;5052299;28;20095;-63
2023/06/12 10:01:55;;;;;;;22.45;16.92;;;;;;;;;;5052051;28;20107;-64
2023/06/12 10:04:37;;;;;;;21.55;18.20;;;;;;;;;;5050043;28;20158;-64
2023/06/12 10:07:06;;;;;;;20.70;17.02;;;;;;;;;;5051940;28;20028;-64
2023/06/12 10:09:33;;;;;;;23.17;18.42;;;;;;;;;;5051828;28;20021;-64
2023/06/12 10:12:00;;;;;;;21.08;17.83;;;;;;;;;;5051731;28;20021;-64
2023/06/12 10:14:29;;;;;;;23.75;21.30;;;;;;;;;;5050985;28;20105;-64
2023/06/12 10:16:58;;;;;;;20.10;17.88;;;;;;;;;;5050445;28;20048;-64
2023/06/12 10:19:25;;;;;;;20.50;17.52;;;;;;;;;;5050668;28;20437;-64
2023/06/12 10:21:54;;;;;;;23.77;17.98;;;;;;;;;;5051760;28;20104;-62
2023/06/12 10:24:24;;;;;;;21.67;18.17;;;;;;;;;;5050797;28;20037;-64
2023/06/12 10:26:51;;;;;;;21.20;17.85;;;;;;;;;;5051959;28;20036;-64
2023/06/12 10:29:36;;;;;;;21.40;17.67;;;;;;;;;;5050548;28;20024;-64
2023/06/12 10:32:11;;;;;;;23.48;17.83;;;;;;;;;;5069436;28;20044;-64
2023/06/12 10:34:41;;;;;;;23.15;18.38;;;;;;;;;;5052975;28;20475;-54
2023/06/12 10:37:25;;;;;;;24.73;17.95;;;;;;;;;;5071115;28;20024;-54
2023/06/12 10:40:10;;;;;;;21.00;17.85;;;;;;;;;;5071263;28;20435;-57
2023/06/12 10:42:39;;;;;;;19.83;17.45;;;;;;;;;;5069890;28;20028;-55
2023/06/12 10:45:14;;;;;;;20.67;17.70;;;;;;;;;;5071066;28;20020;-57
2023/06/12 10:47:40;;;;;;;22.30;16.83;;;;;;;;;;5071408;28;20136;-55
2023/06/12 10:50:06;;;;;;;22.02;18.42;;;;;;;;;;5071191;28;20024;-55
2023/06/12 10:52:32;;;;;;;22.13;17.98;;;;;;;;;;5071601;28;20473;-59
2023/06/12 10:55:13;;;;;;;21.75;18.20;;;;;;;;;;5070840;28;20107;-55
2023/06/12 10:57:40;;;;;;;19.63;17.52;;;;;;;;;;5072701;28;20051;-54
2023/06/12 11:00:09;;;;;;;23.55;18.27;;;;;;;;;;5074255;28;20028;-57
2023/06/12 11:02:35;;;;;;;21.58;18.67;;;;;;;;;;5076356;28;20036;-57
2023/06/12 11:05:05;;;;;;;21.90;19.25;;;;;;;;;;5056442;28;20477;-56
2023/06/12 11:07:32;;;;;;;20.13;18.02;;;;;;;;;;5075735;28;20033;-53
2023/06/12 11:09:58;;;;;;;20.67;18.50;;;;;;;;;;5076123;28;20033;-59
2023/06/12 11:12:24;;;;;;;22.10;19.35;;;;;;;;;;5056480;28;20067;-55
2023/06/12 11:14:50;;;;;;;20.67;18.02;;;;;;;;;;5071257;28;20024;-53
2023/06/12 11:17:16;;;;;;;20.75;18.25;;;;;;;;;;5071513;28;20090;-53
2023/06/12 11:19:42;;;;;;;20.13;17.95;;;;;;;;;;5054171;28;20093;-53
2023/06/12 11:22:08;;;;;;;23.88;19.30;;;;;;;;;;5071425;28;20452;-54
2023/06/12 11:24:35;;;;;;;23.35;17.80;;;;;;;;;;5069969;28;20568;-55
2023/06/12 11:27:02;;;;;;;23.60;18.85;;;;;;;;;;5053402;28;20027;-55
2023/06/12 11:29:35;;;;;;;21.95;18.20;;;;;;;;;;5075053;28;20037;-60
2023/06/12 11:32:04;;;;;;;22.17;18.42;;;;;;;;;;5070283;28;20119;-55
2023/06/12 11:34:34;;;;;;;21.67;17.77;;;;;;;;;;5071065;28;20031;-57
2023/06/12 11:37:11;;;;;;;21.85;18.10;;;;;;;;;;5078083;28;20095;-57
2023/06/12 11:39:37;;;;;;;21.50;18.10;;;;;;;;;;5053617;28;20020;-57
2023/06/12 11:42:03;;;;;;;23.85;18.13;;;;;;;;;;5073418;28;20381;-58
2023/06/12 11:44:29;;;;;;;20.65;18.10;;;;;;;;;;5070346;28;20013;-56
2023/06/12 11:46:58;;;;;;;20.52;18.35;;;;;;;;;;5084239;28;20442;-52
2023/06/12 11:49:24;;;;;;;19.67;17.55;;;;;;;;;;5072792;28;20392;-54
2023/06/12 11:51:51;;;;;;;22.58;18.55;;;;;;;;;;5075925;28;20393;-58
2023/06/12 11:54:17;;;;;;;20.48;18.08;;;;;;;;;;5077822;28;20028;-52
2023/06/12 11:56:43;;;;;;;20.38;18.17;;;;;;;;;;5074781;28;20047;-56
2023/06/12 11:59:09;;;;;;;20.83;18.63;;;;;;;;;;5056751;28;20074;-54
2023/06/12 12:01:38;;;;;;;25.08;18.73;;;;;;;;;;5074634;28;20522;-55
2023/06/12 12:04:05;;;;;;;21.27;18.80;;;;;;;;;;5073064;28;20120;-55
2023/06/12 12:06:31;;;;;;;20.17;17.90;;;;;;;;;;5074431;28;20052;-52
2023/06/12 12:09:02;;;;;;;20.83;18.30;;;;;;;;;;5076179;28;20111;-55
2023/06/12 12:11:30;;;;;;;21.98;19.05;;;;;;;;;;5073751;28;20024;-55
2023/06/12 12:14:00;;;;;;;20.45;18.25;;;;;;;;;;5073661;28;20016;-55
2023/06/12 12:16:28;;;;;;;19.63;17.52;;;;;;;;;;5074113;28;20662;-53
2023/06/12 12:18:55;;;;;;;20.17;17.95;;;;;;;;;;5074421;28;20020;-56
2023/06/12 12:21:23;;;;;;;19.98;17.88;;;;;;;;;;5055604;28;20116;-52
2023/06/12 12:23:48;;;;;;;;;;;;;;;;;;5080106;28;20020;-56
2023/06/12 12:26:15;;;;;;;20.13;17.35;;;;;;;;;;5073576;28;19919;-52
2023/06/12 12:28:41;;;;;;;21.13;17.17;;;;;;;;;;5078764;28;20044;-56
2023/06/12 12:31:08;;;;;;;21.00;18.55;;;;;;;;;;5056231;28;20067;-59
2023/06/12 12:33:34;;;;;;;20.52;18.42;;;;;;;;;;5071020;28;20510;-53
2023/06/12 12:36:00;;;;;;;20.95;18.27;;;;;;;;;;5073198;28;20028;-59
2023/06/12 12:38:26;;;;;;;21.85;19.48;;;;;;;;;;4717080;28;9999788;-53
2023/06/12 12:40:53;;;;;;;20.50;18.40;;;;;;;;;;5070706;28;20024;-53
2023/06/12 12:43:19;;;;;;;21.45;19.25;;;;;;;;;;5070977;28;20036;-54
2023/06/12 12:45:45;;;;;;;21.08;18.88;;;;;;;;;;5069918;28;20112;-54
2023/06/12 12:48:11;;;;;;;20.40;18.20;;;;;;;;;;5070552;28;20024;-57
2023/06/12 12:50:37;;;;;;;23.90;18.40;;;;;;;;;;5069757;28;20097;-60
2023/06/12 12:53:03;;;;;;;21.45;17.83;;;;;;;;;;5068859;28;20032;-51
2023/06/12 12:55:34;;;;;;;22.38;17.90;;;;;;;;;;5071365;28;20440;-55
2023/06/12 12:58:00;;;;;;;19.40;17.30;;;;;;;;;;5072198;28;20025;-53
2023/06/12 13:00:27;;;;;;;20.20;18.10;;;;;;;;;;5073564;28;20024;-57
2023/06/12 13:02:53;;;;;;;19.95;17.80;;;;;;;;;;5090184;22;20011;-59
2023/06/12 13:05:19;;;;;;;20.27;17.98;;;;;;;;;;5018107;28;20052;-62
2023/06/12 13:07:46;;;;;;;20.52;18.20;;;;;;;;;;5013109;28;20433;-62
2023/06/12 13:10:13;;;;;;;20.65;17.92;;;;;;;;;;5031464;28;20024;-61
2023/06/12 13:12:39;;;;;;;22.17;18.00;;;;;;;;;;5032020;28;20025;-61
2023/06/12 13:15:06;;;;;;;19.48;17.48;;;;;;;;;;5050425;28;20134;-61
2023/06/12 13:17:32;;;;;;;22.17;17.23;;;;;;;;;;5050800;28;20151;-62
2023/06/12 13:19:58;;;;;;;20.25;18.13;;;;;;;;;;5050913;28;20147;-62
2023/06/12 13:22:25;;;;;;;21.08;18.75;;;;;;;;;;5033469;28;20029;-60
2023/06/12 13:24:51;;;;;;;21.23;18.93;;;;;;;;;;5050575;28;20021;-58
2023/06/12 13:27:17;;;;;;;22.95;18.33;;;;;;;;;;5051274;28;20017;-61
2023/06/12 13:29:43;;;;;;;20.52;18.02;;;;;;;;;;5051208;28;20035;-61
2023/06/12 13:32:09;;;;;;;20.45;17.65;;;;;;;;;;5050997;28;20092;-61
2023/06/12 13:34:35;;;;;;;22.17;18.50;;;;;;;;;;5032275;28;20048;-61
2023/06/12 13:37:01;;;;;;;21.58;17.58;;;;;;;;;;5051376;28;20057;-61
2023/06/12 13:39:27;;;;;;;20.00;17.55;;;;;;;;;;5033007;28;20106;-62
2023/06/12 13:41:55;;;;;;;20.58;18.50;;;;;;;;;;5032834;28;20414;-61
2023/06/12 13:44:21;;;;;;;;;;;;;;;;;;5033176;28;20439;-63
2023/06/12 13:46:47;;;;;;;23.13;18.55;;;;;;;;;;5050942;28;19909;-63
2023/06/12 13:49:13;;;;;;;20.80;18.40;;;;;;;;;;5050521;28;20028;-64
2023/06/12 13:51:39;;;;;;;22.75;18.90;;;;;;;;;;5050777;28;20091;-60
2023/06/12 13:54:06;;;;;;;21.08;17.73;;;;;;;;;;5049903;28;20032;-65
2023/06/12 13:56:32;;;;;;;20.20;18.10;;;;;;;;;;5049718;28;20338;-66
2023/06/12 13:58:59;;;;;;;24.27;19.87;;;;;;;;;;5050693;28;20028;-63
2023/06/12 14:01:28;;;;;;;21.05;18.83;;;;;;;;;;4796471;28;10000982;-65
2023/06/12 14:03:54;;;;;;;20.90;18.80;;;;;;;;;;5042019;28;20289;-64
2023/06/12 14:06:26;;;;;;;21.50;18.20;;;;;;;;;;5041361;28;20128;-65
2023/06/12 14:08:53;;;;;;;20.50;17.48;;;;;;;;;;5029460;28;20051;-64
2023/06/12 14:11:20;;;;;;;20.33;18.23;;;;;;;;;;5047255;28;20025;-63
2023/06/12 14:13:46;;;;;;;19.00;17.10;;;;;;;;;;5046355;28;20032;-64
2023/06/12 14:16:13;;;;;;;21.58;17.60;;;;;;;;;;5046388;28;20083;-62
2023/06/12 14:18:40;;;;;;;19.40;17.33;;;;;;;;;;5047313;28;20025;-64